Scandinavia, Wisconsin
Current Conditions -  °F | °C
As of 12:55 AM on Saturday 25 Oct 2014 (Local Time) from KPCZ Reporting Station
Overcast Overcast  
Wind Chill: 59°   Ceiling: 1100
Heat Index: 59°   Visibility: 7mi
Dew Point: 56°   Wind: 9mph
Humidity: 91%   Direction: 260°W
Pressure: 29.84"   Gusts: NA
Location:  44.46°N, 89.15°W
Report Text: KPCZ 250555Z AUTO 26008KT 7SM OVC011 15/14 A2984 RMK AO2 T01500135 10151 20121
Loading
Personal Weather Stations






























Interactive Weather Map
Tropical Storm Tracking
New forecast layout! Learn more

10-Day Weather Forecast

Advertisements
Track Severe Weather on mobile